sensor_id;sensor_type;location;lat;lon;timestamp;P1;durP1;ratioP1;P2;durP2;ratioP2
956;SDS011;465;48.802;9.224;2022-11-28T00:00:45;11.93;;;10.10;;
956;SDS011;465;48.802;9.224;2022-11-28T00:03:11;11.10;;;9.40;;
956;SDS011;465;48.802;9.224;2022-11-28T00:05:38;10.90;;;9.70;;
956;SDS011;465;48.802;9.224;2022-11-28T00:08:05;12.57;;;11.23;;
956;SDS011;465;48.802;9.224;2022-11-28T00:10:32;11.23;;;10.13;;
956;SDS011;465;48.802;9.224;2022-11-28T00:13:03;12.67;;;10.23;;
956;SDS011;465;48.802;9.224;2022-11-28T00:15:29;15.20;;;10.80;;
956;SDS011;465;48.802;9.224;2022-11-28T00:17:57;14.77;;;11.23;;
956;SDS011;465;48.802;9.224;2022-11-28T00:20:24;11.30;;;10.20;;
956;SDS011;465;48.802;9.224;2022-11-28T00:22:51;14.03;;;11.10;;
956;SDS011;465;48.802;9.224;2022-11-28T00:25:18;11.90;;;9.90;;
956;SDS011;465;48.802;9.224;2022-11-28T00:27:45;15.17;;;11.03;;
956;SDS011;465;48.802;9.224;2022-11-28T00:30:12;12.63;;;10.20;;
956;SDS011;465;48.802;9.224;2022-11-28T00:32:39;12.80;;;10.73;;
956;SDS011;465;48.802;9.224;2022-11-28T00:35:07;12.67;;;9.77;;
956;SDS011;465;48.802;9.224;2022-11-28T00:37:34;13.60;;;10.57;;
956;SDS011;465;48.802;9.224;2022-11-28T00:40:01;11.40;;;9.97;;
956;SDS011;465;48.802;9.224;2022-11-28T00:42:28;11.63;;;10.00;;
956;SDS011;465;48.802;9.224;2022-11-28T00:44:55;9.73;;;8.70;;
956;SDS011;465;48.802;9.224;2022-11-28T00:47:21;10.93;;;8.03;;
956;SDS011;465;48.802;9.224;2022-11-28T00:49:48;10.80;;;9.57;;
956;SDS011;465;48.802;9.224;2022-11-28T00:52:16;11.80;;;10.60;;
956;SDS011;465;48.802;9.224;2022-11-28T00:54:43;11.83;;;10.30;;
956;SDS011;465;48.802;9.224;2022-11-28T00:57:10;11.83;;;10.60;;
956;SDS011;465;48.802;9.224;2022-11-28T00:59:37;13.20;;;10.77;;
956;SDS011;465;48.802;9.224;2022-11-28T01:02:04;11.40;;;10.20;;
956;SDS011;465;48.802;9.224;2022-11-28T01:04:30;11.37;;;9.50;;
956;SDS011;465;48.802;9.224;2022-11-28T01:06:59;13.13;;;10.17;;
956;SDS011;465;48.802;9.224;2022-11-28T01:09:28;11.23;;;9.40;;
956;SDS011;465;48.802;9.224;2022-11-28T01:11:55;11.97;;;9.00;;
956;SDS011;465;48.802;9.224;2022-11-28T01:14:22;13.57;;;9.97;;
956;SDS011;465;48.802;9.224;2022-11-28T01:16:50;11.30;;;9.30;;
956;SDS011;465;48.802;9.224;2022-11-28T01:19:18;11.70;;;9.43;;
956;SDS011;465;48.802;9.224;2022-11-28T01:21:45;10.73;;;9.73;;
956;SDS011;465;48.802;9.224;2022-11-28T01:24:12;12.00;;;9.83;;
956;SDS011;465;48.802;9.224;2022-11-28T01:26:41;9.97;;;8.93;;
956;SDS011;465;48.802;9.224;2022-11-28T01:29:08;10.70;;;9.60;;
956;SDS011;465;48.802;9.224;2022-11-28T01:31:35;9.70;;;8.73;;
956;SDS011;465;48.802;9.224;2022-11-28T01:34:02;10.40;;;9.30;;
956;SDS011;465;48.802;9.224;2022-11-28T01:36:29;12.10;;;8.87;;
956;SDS011;465;48.802;9.224;2022-11-28T01:38:56;10.17;;;9.00;;
956;SDS011;465;48.802;9.224;2022-11-28T01:41:24;9.67;;;8.70;;
956;SDS011;465;48.802;9.224;2022-11-28T01:43:57;12.20;;;9.60;;
956;SDS011;465;48.802;9.224;2022-11-28T01:46:26;10.70;;;9.53;;
956;SDS011;465;48.802;9.224;2022-11-28T01:48:53;13.93;;;9.10;;
956;SDS011;465;48.802;9.224;2022-11-28T01:51:22;10.50;;;9.40;;
956;SDS011;465;48.802;9.224;2022-11-28T01:53:49;10.67;;;9.67;;
956;SDS011;465;48.802;9.224;2022-11-28T01:56:18;14.67;;;10.10;;
956;SDS011;465;48.802;9.224;2022-11-28T01:58:49;11.30;;;9.27;;
956;SDS011;465;48.802;9.224;2022-11-28T02:01:21;10.43;;;8.90;;
956;SDS011;465;48.802;9.224;2022-11-28T02:03:50;14.13;;;8.93;;
956;SDS011;465;48.802;9.224;2022-11-28T02:06:19;9.70;;;8.63;;
956;SDS011;465;48.802;9.224;2022-11-28T02:08:49;10.03;;;8.30;;
956;SDS011;465;48.802;9.224;2022-11-28T02:11:22;10.10;;;9.10;;
956;SDS011;465;48.802;9.224;2022-11-28T02:14:10;11.50;;;9.43;;
956;SDS011;465;48.802;9.224;2022-11-28T02:16:50;9.67;;;8.77;;
956;SDS011;465;48.802;9.224;2022-11-28T02:22:27;8.87;;;7.97;;
956;SDS011;465;48.802;9.224;2022-11-28T02:25:06;9.83;;;8.30;;
956;SDS011;465;48.802;9.224;2022-11-28T02:28:03;9.93;;;9.03;;
956;SDS011;465;48.802;9.224;2022-11-28T02:30:51;9.43;;;8.43;;
956;SDS011;465;48.802;9.224;2022-11-28T02:33:27;10.17;;;8.80;;
956;SDS011;465;48.802;9.224;2022-11-28T02:35:59;8.10;;;7.40;;
956;SDS011;465;48.802;9.224;2022-11-28T02:38:35;11.07;;;8.70;;
956;SDS011;465;48.802;9.224;2022-11-28T02:41:14;9.63;;;8.53;;
956;SDS011;465;48.802;9.224;2022-11-28T02:43:50;10.37;;;8.20;;
956;SDS011;465;48.802;9.224;2022-11-28T02:46:21;9.37;;;8.47;;
956;SDS011;465;48.802;9.224;2022-11-28T02:48:54;10.17;;;9.13;;
956;SDS011;465;48.802;9.224;2022-11-28T02:51:24;13.40;;;10.90;;
956;SDS011;465;48.802;9.224;2022-11-28T02:53:57;11.73;;;10.00;;
956;SDS011;465;48.802;9.224;2022-11-28T02:56:27;11.83;;;10.20;;
956;SDS011;465;48.802;9.224;2022-11-28T02:58:53;14.33;;;10.50;;
956;SDS011;465;48.802;9.224;2022-11-28T03:01:22;10.17;;;8.20;;
956;SDS011;465;48.802;9.224;2022-11-28T03:06:52;11.43;;;8.77;;
956;SDS011;465;48.802;9.224;2022-11-28T03:09:36;10.17;;;8.80;;
956;SDS011;465;48.802;9.224;2022-11-28T03:12:22;11.13;;;9.27;;
956;SDS011;465;48.802;9.224;2022-11-28T03:14:54;10.93;;;9.80;;
956;SDS011;465;48.802;9.224;2022-11-28T03:17:31;14.37;;;10.43;;
956;SDS011;465;48.802;9.224;2022-11-28T03:20:09;13.60;;;10.27;;
956;SDS011;465;48.802;9.224;2022-11-28T03:22:42;11.07;;;9.60;;
956;SDS011;465;48.802;9.224;2022-11-28T03:25:16;11.60;;;8.70;;
956;SDS011;465;48.802;9.224;2022-11-28T03:27:52;11.50;;;8.80;;
956;SDS011;465;48.802;9.224;2022-11-28T03:30:23;15.07;;;9.27;;
956;SDS011;465;48.802;9.224;2022-11-28T03:32:55;9.37;;;8.20;;
956;SDS011;465;48.802;9.224;2022-11-28T03:35:25;9.70;;;8.70;;
956;SDS011;465;48.802;9.224;2022-11-28T03:37:56;11.60;;;10.50;;
956;SDS011;465;48.802;9.224;2022-11-28T03:40:30;12.13;;;8.77;;
956;SDS011;465;48.802;9.224;2022-11-28T03:43:02;9.40;;;8.50;;
956;SDS011;465;48.802;9.224;2022-11-28T03:45:33;10.97;;;8.90;;
956;SDS011;465;48.802;9.224;2022-11-28T03:48:05;10.53;;;9.27;;
956;SDS011;465;48.802;9.224;2022-11-28T03:50:39;10.13;;;8.93;;
956;SDS011;465;48.802;9.224;2022-11-28T03:53:10;12.07;;;8.03;;
956;SDS011;465;48.802;9.224;2022-11-28T03:55:42;12.13;;;10.10;;
956;SDS011;465;48.802;9.224;2022-11-28T03:58:15;10.10;;;8.93;;
956;SDS011;465;48.802;9.224;2022-11-28T04:00:48;12.00;;;9.80;;
956;SDS011;465;48.802;9.224;2022-11-28T04:03:25;10.40;;;8.80;;
956;SDS011;465;48.802;9.224;2022-11-28T04:06:01;11.40;;;10.07;;
956;SDS011;465;48.802;9.224;2022-11-28T04:08:34;14.13;;;10.07;;
956;SDS011;465;48.802;9.224;2022-11-28T04:11:07;15.13;;;8.60;;
956;SDS011;465;48.802;9.224;2022-11-28T04:13:40;13.33;;;10.30;;
956;SDS011;465;48.802;9.224;2022-11-28T04:16:12;10.90;;;9.23;;
956;SDS011;465;48.802;9.224;2022-11-28T04:18:47;10.67;;;9.30;;
956;SDS011;465;48.802;9.224;2022-11-28T04:21:22;12.83;;;8.60;;
956;SDS011;465;48.802;9.224;2022-11-28T04:23:52;11.50;;;9.73;;
956;SDS011;465;48.802;9.224;2022-11-28T04:26:23;10.70;;;9.50;;
956;SDS011;465;48.802;9.224;2022-11-28T04:28:54;13.50;;;10.10;;
956;SDS011;465;48.802;9.224;2022-11-28T04:31:24;11.40;;;10.13;;
956;SDS011;465;48.802;9.224;2022-11-28T04:33:52;10.40;;;9.30;;
956;SDS011;465;48.802;9.224;2022-11-28T04:36:24;12.50;;;9.60;;
956;SDS011;465;48.802;9.224;2022-11-28T04:38:52;9.37;;;8.47;;
956;SDS011;465;48.802;9.224;2022-11-28T04:41:21;11.53;;;9.97;;
956;SDS011;465;48.802;9.224;2022-11-28T04:43:52;10.70;;;8.90;;
956;SDS011;465;48.802;9.224;2022-11-28T04:46:25;15.27;;;9.23;;
956;SDS011;465;48.802;9.224;2022-11-28T04:48:56;11.97;;;9.50;;
956;SDS011;465;48.802;9.224;2022-11-28T04:51:25;11.60;;;9.67;;
956;SDS011;465;48.802;9.224;2022-11-28T04:53:57;12.63;;;10.13;;
956;SDS011;465;48.802;9.224;2022-11-28T04:56:27;10.93;;;9.83;;
956;SDS011;465;48.802;9.224;2022-11-28T04:58:59;12.53;;;10.37;;
956;SDS011;465;48.802;9.224;2022-11-28T05:01:28;10.37;;;8.30;;
956;SDS011;465;48.802;9.224;2022-11-28T05:03:57;10.23;;;8.77;;
956;SDS011;465;48.802;9.224;2022-11-28T05:06:26;10.20;;;9.03;;
956;SDS011;465;48.802;9.224;2022-11-28T05:08:54;12.10;;;9.40;;
956;SDS011;465;48.802;9.224;2022-11-28T05:11:21;13.10;;;10.50;;
956;SDS011;465;48.802;9.224;2022-11-28T05:13:48;12.10;;;9.90;;
956;SDS011;465;48.802;9.224;2022-11-28T05:16:15;12.07;;;9.20;;
956;SDS011;465;48.802;9.224;2022-11-28T05:18:42;10.57;;;9.50;;
956;SDS011;465;48.802;9.224;2022-11-28T05:21:09;11.70;;;9.60;;
956;SDS011;465;48.802;9.224;2022-11-28T05:23:38;10.77;;;9.57;;
956;SDS011;465;48.802;9.224;2022-11-28T05:26:06;13.30;;;9.80;;
956;SDS011;465;48.802;9.224;2022-11-28T05:28:34;13.63;;;9.90;;
956;SDS011;465;48.802;9.224;2022-11-28T05:31:01;10.00;;;8.90;;
956;SDS011;465;48.802;9.224;2022-11-28T05:33:28;11.90;;;10.13;;
956;SDS011;465;48.802;9.224;2022-11-28T05:35:55;12.20;;;9.87;;
956;SDS011;465;48.802;9.224;2022-11-28T05:38:22;10.03;;;9.03;;
956;SDS011;465;48.802;9.224;2022-11-28T05:40:50;13.00;;;9.37;;
956;SDS011;465;48.802;9.224;2022-11-28T05:43:17;12.03;;;9.60;;
956;SDS011;465;48.802;9.224;2022-11-28T05:45:44;15.10;;;10.73;;
956;SDS011;465;48.802;9.224;2022-11-28T05:48:11;11.20;;;8.97;;
956;SDS011;465;48.802;9.224;2022-11-28T05:50:38;12.17;;;9.97;;
956;SDS011;465;48.802;9.224;2022-11-28T05:53:05;11.27;;;9.63;;
956;SDS011;465;48.802;9.224;2022-11-28T05:55:32;12.37;;;9.40;;
956;SDS011;465;48.802;9.224;2022-11-28T05:58:00;11.33;;;9.43;;
956;SDS011;465;48.802;9.224;2022-11-28T06:00:27;10.13;;;9.13;;
956;SDS011;465;48.802;9.224;2022-11-28T06:02:55;12.63;;;9.90;;
956;SDS011;465;48.802;9.224;2022-11-28T06:05:21;11.60;;;10.23;;
956;SDS011;465;48.802;9.224;2022-11-28T06:07:48;10.20;;;9.10;;
956;SDS011;465;48.802;9.224;2022-11-28T06:10:15;8.90;;;8.00;;
956;SDS011;465;48.802;9.224;2022-11-28T06:12:42;12.20;;;9.97;;
956;SDS011;465;48.802;9.224;2022-11-28T06:15:10;10.10;;;9.07;;
956;SDS011;465;48.802;9.224;2022-11-28T06:17:37;11.33;;;9.37;;
956;SDS011;465;48.802;9.224;2022-11-28T06:20:04;13.80;;;11.30;;
956;SDS011;465;48.802;9.224;2022-11-28T06:22:32;13.00;;;10.90;;
956;SDS011;465;48.802;9.224;2022-11-28T06:24:59;14.20;;;11.60;;
956;SDS011;465;48.802;9.224;2022-11-28T06:27:26;18.03;;;12.23;;
956;SDS011;465;48.802;9.224;2022-11-28T06:29:53;14.57;;;12.20;;
956;SDS011;465;48.802;9.224;2022-11-28T06:32:21;15.97;;;10.70;;
956;SDS011;465;48.802;9.224;2022-11-28T06:34:47;12.67;;;9.90;;
956;SDS011;465;48.802;9.224;2022-11-28T06:37:14;14.60;;;11.80;;
956;SDS011;465;48.802;9.224;2022-11-28T06:39:41;15.37;;;10.40;;
956;SDS011;465;48.802;9.224;2022-11-28T06:42:08;16.13;;;11.30;;
956;SDS011;465;48.802;9.224;2022-11-28T06:44:34;16.10;;;10.40;;
956;SDS011;465;48.802;9.224;2022-11-28T06:47:01;20.50;;;11.43;;
956;SDS011;465;48.802;9.224;2022-11-28T06:49:29;12.60;;;10.57;;
956;SDS011;465;48.802;9.224;2022-11-28T06:51:56;11.67;;;9.17;;
956;SDS011;465;48.802;9.224;2022-11-28T06:54:22;10.70;;;8.97;;
956;SDS011;465;48.802;9.224;2022-11-28T06:56:49;12.53;;;10.30;;
956;SDS011;465;48.802;9.224;2022-11-28T06:59:16;16.40;;;10.07;;
956;SDS011;465;48.802;9.224;2022-11-28T07:01:43;11.23;;;9.43;;
956;SDS011;465;48.802;9.224;2022-11-28T07:04:10;11.47;;;9.40;;
956;SDS011;465;48.802;9.224;2022-11-28T07:06:38;13.47;;;9.57;;
956;SDS011;465;48.802;9.224;2022-11-28T07:09:04;13.77;;;11.00;;
956;SDS011;465;48.802;9.224;2022-11-28T07:11:31;11.47;;;9.83;;
956;SDS011;465;48.802;9.224;2022-11-28T07:13:59;14.03;;;11.10;;
956;SDS011;465;48.802;9.224;2022-11-28T07:16:28;15.03;;;10.90;;
956;SDS011;465;48.802;9.224;2022-11-28T07:18:56;15.43;;;12.30;;
956;SDS011;465;48.802;9.224;2022-11-28T07:21:23;12.37;;;11.07;;
956;SDS011;465;48.802;9.224;2022-11-28T07:23:52;19.53;;;11.60;;
956;SDS011;465;48.802;9.224;2022-11-28T07:26:19;17.57;;;12.90;;
956;SDS011;465;48.802;9.224;2022-11-28T07:28:47;17.87;;;12.93;;
956;SDS011;465;48.802;9.224;2022-11-28T07:31:15;18.07;;;12.67;;
956;SDS011;465;48.802;9.224;2022-11-28T07:33:44;19.53;;;12.70;;
956;SDS011;465;48.802;9.224;2022-11-28T07:36:13;26.33;;;13.20;;
956;SDS011;465;48.802;9.224;2022-11-28T07:38:41;13.70;;;11.83;;
956;SDS011;465;48.802;9.224;2022-11-28T07:41:12;17.17;;;11.60;;
956;SDS011;465;48.802;9.224;2022-11-28T07:43:39;15.77;;;11.67;;
956;SDS011;465;48.802;9.224;2022-11-28T07:46:08;16.00;;;10.97;;
956;SDS011;465;48.802;9.224;2022-11-28T07:48:36;16.93;;;12.03;;
956;SDS011;465;48.802;9.224;2022-11-28T07:51:03;13.90;;;11.37;;
956;SDS011;465;48.802;9.224;2022-11-28T07:53:32;12.47;;;10.43;;
956;SDS011;465;48.802;9.224;2022-11-28T07:56:00;14.23;;;12.80;;
956;SDS011;465;48.802;9.224;2022-11-28T07:58:29;13.10;;;11.80;;
956;SDS011;465;48.802;9.224;2022-11-28T08:00:56;16.00;;;12.03;;
956;SDS011;465;48.802;9.224;2022-11-28T08:03:23;14.20;;;11.53;;
956;SDS011;465;48.802;9.224;2022-11-28T08:05:50;12.93;;;11.43;;
956;SDS011;465;48.802;9.224;2022-11-28T08:08:17;17.37;;;13.03;;
956;SDS011;465;48.802;9.224;2022-11-28T08:10:45;13.80;;;12.03;;
956;SDS011;465;48.802;9.224;2022-11-28T08:13:12;15.47;;;13.00;;
956;SDS011;465;48.802;9.224;2022-11-28T08:15:40;19.87;;;14.10;;
956;SDS011;465;48.802;9.224;2022-11-28T08:18:07;15.37;;;11.80;;
956;SDS011;465;48.802;9.224;2022-11-28T08:20:34;20.90;;;12.97;;
956;SDS011;465;48.802;9.224;2022-11-28T08:23:01;16.63;;;11.70;;
956;SDS011;465;48.802;9.224;2022-11-28T08:25:28;15.27;;;10.57;;
956;SDS011;465;48.802;9.224;2022-11-28T08:27:56;14.13;;;11.43;;
956;SDS011;465;48.802;9.224;2022-11-28T08:30:22;14.93;;;11.77;;
956;SDS011;465;48.802;9.224;2022-11-28T08:32:50;12.13;;;10.10;;
956;SDS011;465;48.802;9.224;2022-11-28T08:35:17;14.13;;;10.47;;
956;SDS011;465;48.802;9.224;2022-11-28T08:37:44;15.50;;;10.83;;
956;SDS011;465;48.802;9.224;2022-11-28T08:40:12;13.83;;;12.40;;
956;SDS011;465;48.802;9.224;2022-11-28T08:42:39;13.10;;;11.30;;
956;SDS011;465;48.802;9.224;2022-11-28T08:45:06;11.50;;;9.63;;
956;SDS011;465;48.802;9.224;2022-11-28T08:47:35;10.53;;;8.30;;
956;SDS011;465;48.802;9.224;2022-11-28T08:50:04;11.13;;;8.90;;
956;SDS011;465;48.802;9.224;2022-11-28T08:52:32;10.23;;;9.23;;
956;SDS011;465;48.802;9.224;2022-11-28T08:54:58;12.93;;;10.93;;
956;SDS011;465;48.802;9.224;2022-11-28T08:57:25;14.60;;;10.20;;
956;SDS011;465;48.802;9.224;2022-11-28T08:59:52;12.03;;;9.63;;
956;SDS011;465;48.802;9.224;2022-11-28T09:02:19;19.97;;;10.70;;
956;SDS011;465;48.802;9.224;2022-11-28T09:04:45;15.57;;;10.87;;
956;SDS011;465;48.802;9.224;2022-11-28T09:07:14;10.23;;;9.20;;
956;SDS011;465;48.802;9.224;2022-11-28T09:09:40;12.20;;;10.03;;
956;SDS011;465;48.802;9.224;2022-11-28T09:12:07;16.23;;;10.30;;
956;SDS011;465;48.802;9.224;2022-11-28T09:14:34;13.30;;;11.40;;
956;SDS011;465;48.802;9.224;2022-11-28T09:17:01;17.90;;;12.10;;
956;SDS011;465;48.802;9.224;2022-11-28T09:19:28;12.87;;;10.63;;
956;SDS011;465;48.802;9.224;2022-11-28T09:21:55;16.70;;;11.90;;
956;SDS011;465;48.802;9.224;2022-11-28T09:24:23;25.60;;;12.17;;
956;SDS011;465;48.802;9.224;2022-11-28T09:26:52;17.90;;;10.97;;
956;SDS011;465;48.802;9.224;2022-11-28T09:29:19;16.43;;;10.87;;
956;SDS011;465;48.802;9.224;2022-11-28T09:31:46;12.13;;;9.60;;
956;SDS011;465;48.802;9.224;2022-11-28T09:34:13;20.80;;;11.07;;
956;SDS011;465;48.802;9.224;2022-11-28T09:36:40;12.60;;;11.27;;
956;SDS011;465;48.802;9.224;2022-11-28T09:39:07;16.93;;;11.10;;
956;SDS011;465;48.802;9.224;2022-11-28T09:41:39;16.37;;;10.53;;
956;SDS011;465;48.802;9.224;2022-11-28T09:44:15;16.70;;;11.80;;
956;SDS011;465;48.802;9.224;2022-11-28T09:46:46;15.60;;;11.67;;
956;SDS011;465;48.802;9.224;2022-11-28T09:49:22;14.20;;;11.37;;
956;SDS011;465;48.802;9.224;2022-11-28T09:51:56;11.87;;;10.77;;
956;SDS011;465;48.802;9.224;2022-11-28T09:54:28;16.40;;;12.03;;
956;SDS011;465;48.802;9.224;2022-11-28T09:57:09;11.13;;;10.03;;
956;SDS011;465;48.802;9.224;2022-11-28T09:59:42;13.80;;;11.00;;
956;SDS011;465;48.802;9.224;2022-11-28T10:02:15;14.13;;;11.03;;
956;SDS011;465;48.802;9.224;2022-11-28T10:04:49;14.93;;;10.67;;
956;SDS011;465;48.802;9.224;2022-11-28T10:07:25;12.70;;;11.33;;
956;SDS011;465;48.802;9.224;2022-11-28T10:09:59;16.30;;;10.63;;
956;SDS011;465;48.802;9.224;2022-11-28T10:12:36;15.47;;;11.20;;
956;SDS011;465;48.802;9.224;2022-11-28T10:15:19;14.07;;;10.77;;
956;SDS011;465;48.802;9.224;2022-11-28T10:17:55;19.60;;;10.87;;
956;SDS011;465;48.802;9.224;2022-11-28T10:20:30;11.90;;;9.27;;
956;SDS011;465;48.802;9.224;2022-11-28T10:22:59;14.30;;;11.50;;
956;SDS011;465;48.802;9.224;2022-11-28T10:25:30;16.17;;;10.93;;
956;SDS011;465;48.802;9.224;2022-11-28T10:28:02;13.20;;;10.20;;
956;SDS011;465;48.802;9.224;2022-11-28T10:30:30;19.80;;;11.53;;
956;SDS011;465;48.802;9.224;2022-11-28T10:33:02;14.63;;;10.80;;
956;SDS011;465;48.802;9.224;2022-11-28T10:35:37;20.77;;;11.47;;
956;SDS011;465;48.802;9.224;2022-11-28T10:38:09;16.77;;;12.17;;
956;SDS011;465;48.802;9.224;2022-11-28T10:40:39;16.23;;;11.40;;
956;SDS011;465;48.802;9.224;2022-11-28T10:43:15;12.33;;;10.27;;
956;SDS011;465;48.802;9.224;2022-11-28T10:45:51;11.20;;;8.87;;
956;SDS011;465;48.802;9.224;2022-11-28T10:48:30;13.20;;;11.63;;
956;SDS011;465;48.802;9.224;2022-11-28T10:51:07;13.73;;;11.30;;
956;SDS011;465;48.802;9.224;2022-11-28T10:53:56;14.57;;;10.20;;
956;SDS011;465;48.802;9.224;2022-11-28T10:56:36;17.67;;;10.03;;
956;SDS011;465;48.802;9.224;2022-11-28T10:59:15;16.67;;;12.43;;
956;SDS011;465;48.802;9.224;2022-11-28T11:01:47;20.23;;;12.57;;
956;SDS011;465;48.802;9.224;2022-11-28T11:04:16;13.23;;;10.20;;
956;SDS011;465;48.802;9.224;2022-11-28T11:06:50;13.00;;;10.63;;
956;SDS011;465;48.802;9.224;2022-11-28T11:09:26;12.80;;;11.27;;
956;SDS011;465;48.802;9.224;2022-11-28T11:11:54;16.33;;;12.60;;
956;SDS011;465;48.802;9.224;2022-11-28T11:14:32;21.10;;;14.10;;
956;SDS011;465;48.802;9.224;2022-11-28T11:19:33;13.40;;;11.90;;
956;SDS011;465;48.802;9.224;2022-11-28T11:22:03;15.03;;;12.07;;
956;SDS011;465;48.802;9.224;2022-11-28T11:24:31;17.67;;;13.90;;
956;SDS011;465;48.802;9.224;2022-11-28T11:27:04;18.40;;;12.90;;
956;SDS011;465;48.802;9.224;2022-11-28T11:29:40;17.63;;;13.23;;
956;SDS011;465;48.802;9.224;2022-11-28T11:32:16;13.37;;;11.73;;
956;SDS011;465;48.802;9.224;2022-11-28T11:34:46;15.00;;;12.97;;
956;SDS011;465;48.802;9.224;2022-11-28T11:37:16;13.87;;;11.70;;
956;SDS011;465;48.802;9.224;2022-11-28T11:39:47;13.17;;;11.77;;
956;SDS011;465;48.802;9.224;2022-11-28T11:42:18;13.80;;;11.37;;
956;SDS011;465;48.802;9.224;2022-11-28T11:44:48;15.30;;;11.67;;
956;SDS011;465;48.802;9.224;2022-11-28T11:47:16;15.00;;;11.47;;
956;SDS011;465;48.802;9.224;2022-11-28T11:49:43;13.37;;;12.00;;
956;SDS011;465;48.802;9.224;2022-11-28T11:52:16;11.93;;;10.70;;
956;SDS011;465;48.802;9.224;2022-11-28T11:54:56;14.33;;;11.60;;
956;SDS011;465;48.802;9.224;2022-11-28T11:57:29;15.17;;;11.33;;
956;SDS011;465;48.802;9.224;2022-11-28T12:00:01;16.63;;;12.67;;
956;SDS011;465;48.802;9.224;2022-11-28T12:02:33;17.90;;;13.00;;
956;SDS011;465;48.802;9.224;2022-11-28T12:05:03;14.67;;;12.57;;
956;SDS011;465;48.802;9.224;2022-11-28T12:07:36;14.03;;;12.63;;
956;SDS011;465;48.802;9.224;2022-11-28T12:10:09;15.83;;;12.93;;
956;SDS011;465;48.802;9.224;2022-11-28T12:12:41;14.03;;;11.70;;
956;SDS011;465;48.802;9.224;2022-11-28T12:15:14;17.33;;;12.90;;
956;SDS011;465;48.802;9.224;2022-11-28T12:17:55;16.87;;;13.30;;
956;SDS011;465;48.802;9.224;2022-11-28T12:20:35;17.53;;;11.90;;
956;SDS011;465;48.802;9.224;2022-11-28T12:23:14;17.77;;;13.57;;
956;SDS011;465;48.802;9.224;2022-11-28T12:25:59;17.40;;;14.40;;
956;SDS011;465;48.802;9.224;2022-11-28T12:28:34;15.70;;;14.10;;
956;SDS011;465;48.802;9.224;2022-11-28T12:31:13;15.00;;;13.40;;
956;SDS011;465;48.802;9.224;2022-11-28T12:33:49;14.47;;;12.97;;
956;SDS011;465;48.802;9.224;2022-11-28T12:36:25;13.80;;;12.40;;
956;SDS011;465;48.802;9.224;2022-11-28T12:38:57;15.03;;;13.50;;
956;SDS011;465;48.802;9.224;2022-11-28T12:41:35;13.73;;;12.23;;
956;SDS011;465;48.802;9.224;2022-11-28T12:44:23;20.87;;;13.20;;
956;SDS011;465;48.802;9.224;2022-11-28T12:47:00;18.47;;;13.80;;
956;SDS011;465;48.802;9.224;2022-11-28T12:49:37;11.60;;;10.40;;
956;SDS011;465;48.802;9.224;2022-11-28T12:52:14;13.07;;;10.63;;
956;SDS011;465;48.802;9.224;2022-11-28T12:54:55;13.87;;;11.70;;
956;SDS011;465;48.802;9.224;2022-11-28T12:57:33;11.30;;;10.00;;
956;SDS011;465;48.802;9.224;2022-11-28T13:00:09;14.20;;;12.70;;
956;SDS011;465;48.802;9.224;2022-11-28T13:02:52;11.53;;;10.33;;
956;SDS011;465;48.802;9.224;2022-11-28T13:05:32;12.07;;;10.97;;
956;SDS011;465;48.802;9.224;2022-11-28T13:08:11;20.40;;;12.20;;
956;SDS011;465;48.802;9.224;2022-11-28T13:11:10;14.03;;;12.13;;
956;SDS011;465;48.802;9.224;2022-11-28T13:13:45;18.03;;;13.27;;
956;SDS011;465;48.802;9.224;2022-11-28T13:16:17;24.83;;;15.53;;
956;SDS011;465;48.802;9.224;2022-11-28T13:18:53;21.73;;;15.70;;
956;SDS011;465;48.802;9.224;2022-11-28T13:21:24;18.00;;;13.77;;
956;SDS011;465;48.802;9.224;2022-11-28T13:24:00;17.70;;;13.70;;
956;SDS011;465;48.802;9.224;2022-11-28T13:26:32;14.83;;;12.43;;
956;SDS011;465;48.802;9.224;2022-11-28T13:29:17;16.90;;;12.80;;
956;SDS011;465;48.802;9.224;2022-11-28T13:31:51;21.57;;;14.50;;
956;SDS011;465;48.802;9.224;2022-11-28T13:34:24;15.10;;;13.60;;
956;SDS011;465;48.802;9.224;2022-11-28T13:36:54;21.07;;;15.47;;
956;SDS011;465;48.802;9.224;2022-11-28T13:39:29;17.20;;;13.80;;
956;SDS011;465;48.802;9.224;2022-11-28T13:42:03;18.03;;;14.60;;
956;SDS011;465;48.802;9.224;2022-11-28T13:44:40;17.33;;;12.40;;
956;SDS011;465;48.802;9.224;2022-11-28T13:47:12;14.50;;;13.00;;
956;SDS011;465;48.802;9.224;2022-11-28T13:49:41;13.47;;;12.10;;
956;SDS011;465;48.802;9.224;2022-11-28T13:54:56;16.67;;;11.67;;
956;SDS011;465;48.802;9.224;2022-11-28T13:57:27;14.00;;;11.70;;
956;SDS011;465;48.802;9.224;2022-11-28T13:59:57;13.20;;;11.77;;
956;SDS011;465;48.802;9.224;2022-11-28T14:02:33;15.20;;;11.80;;
956;SDS011;465;48.802;9.224;2022-11-28T14:05:14;14.37;;;12.03;;
956;SDS011;465;48.802;9.224;2022-11-28T14:07:53;13.70;;;11.53;;
956;SDS011;465;48.802;9.224;2022-11-28T14:10:24;13.33;;;12.03;;
956;SDS011;465;48.802;9.224;2022-11-28T14:16:16;15.43;;;12.93;;
956;SDS011;465;48.802;9.224;2022-11-28T14:19:02;15.23;;;13.43;;
956;SDS011;465;48.802;9.224;2022-11-28T14:21:47;22.10;;;15.73;;
956;SDS011;465;48.802;9.224;2022-11-28T14:24:26;16.37;;;14.53;;
956;SDS011;465;48.802;9.224;2022-11-28T14:27:05;23.77;;;15.80;;
956;SDS011;465;48.802;9.224;2022-11-28T14:29:33;21.13;;;15.50;;
956;SDS011;465;48.802;9.224;2022-11-28T14:34:43;17.87;;;14.87;;
956;SDS011;465;48.802;9.224;2022-11-28T14:38:42;20.73;;;16.63;;
956;SDS011;465;48.802;9.224;2022-11-28T14:41:10;20.10;;;16.83;;
956;SDS011;465;48.802;9.224;2022-11-28T14:43:40;20.23;;;15.60;;
956;SDS011;465;48.802;9.224;2022-11-28T14:46:21;20.90;;;17.23;;
956;SDS011;465;48.802;9.224;2022-11-28T14:54:35;20.77;;;15.90;;
956;SDS011;465;48.802;9.224;2022-11-28T14:57:09;21.00;;;15.43;;
956;SDS011;465;48.802;9.224;2022-11-28T14:59:38;22.03;;;16.90;;
956;SDS011;465;48.802;9.224;2022-11-28T15:02:12;26.17;;;17.43;;
956;SDS011;465;48.802;9.224;2022-11-28T15:04:53;22.20;;;15.57;;
956;SDS011;465;48.802;9.224;2022-11-28T15:07:33;18.57;;;14.40;;
956;SDS011;465;48.802;9.224;2022-11-28T15:10:09;22.70;;;13.77;;
956;SDS011;465;48.802;9.224;2022-11-28T15:12:46;19.67;;;14.20;;
956;SDS011;465;48.802;9.224;2022-11-28T15:15:21;19.30;;;15.20;;
956;SDS011;465;48.802;9.224;2022-11-28T15:17:48;22.10;;;16.27;;
956;SDS011;465;48.802;9.224;2022-11-28T15:20:18;17.43;;;15.30;;
956;SDS011;465;48.802;9.224;2022-11-28T15:22:51;22.57;;;16.40;;
956;SDS011;465;48.802;9.224;2022-11-28T15:25:21;19.00;;;14.90;;
956;SDS011;465;48.802;9.224;2022-11-28T15:27:49;19.37;;;15.10;;
956;SDS011;465;48.802;9.224;2022-11-28T15:30:16;22.03;;;17.60;;
956;SDS011;465;48.802;9.224;2022-11-28T15:32:44;23.17;;;16.63;;
956;SDS011;465;48.802;9.224;2022-11-28T15:35:12;22.13;;;16.07;;
956;SDS011;465;48.802;9.224;2022-11-28T15:37:45;22.43;;;15.77;;
956;SDS011;465;48.802;9.224;2022-11-28T15:40:18;21.13;;;15.60;;
956;SDS011;465;48.802;9.224;2022-11-28T15:42:49;21.40;;;15.37;;
956;SDS011;465;48.802;9.224;2022-11-28T15:45:18;21.20;;;15.40;;
956;SDS011;465;48.802;9.224;2022-11-28T15:47:49;22.63;;;16.40;;
956;SDS011;465;48.802;9.224;2022-11-28T15:50:17;20.10;;;16.73;;
956;SDS011;465;48.802;9.224;2022-11-28T15:52:51;24.27;;;18.27;;
956;SDS011;465;48.802;9.224;2022-11-28T15:55:21;25.20;;;17.97;;
956;SDS011;465;48.802;9.224;2022-11-28T15:57:48;25.83;;;17.53;;
956;SDS011;465;48.802;9.224;2022-11-28T16:00:15;21.07;;;18.37;;
956;SDS011;465;48.802;9.224;2022-11-28T16:02:44;24.13;;;17.90;;
956;SDS011;465;48.802;9.224;2022-11-28T16:05:12;23.53;;;17.53;;
956;SDS011;465;48.802;9.224;2022-11-28T16:07:45;22.67;;;18.50;;